Terminal Aerodrome Forecast
Issued by NWS

Home | Current Version | Previous Version | Text Only | Print | Product List | Glossary On
Versions: 1 2 3 4 5 6 7 8 9 10 11 12 13 14 15 16 17
000
FTUS43 KFGF 282000 AAA
TAFDVL
TAF AMD
KDVL 282000Z 2820/2918 33007KT P6SM VCSH BKN020
     FM290300 VRB03KT P6SM BKN010
     FM291000 29007KT P6SM BKN015
     FM291400 29008KT P6SM SCT040=

USA.gov is the U.S. government's official web portal to all federal, state and local government web resources and services.